VOE6DK LFQQ-LPFR
Flight info
| Callsign | VOE6DK |
|---|---|
| Flight time | N/A |
| Altitude | 34000 |
| Route | ABB R50 OKRUZ H20 LGL UT176 TERPO UN872 ERIGA DCT FUJTI DCT BAKUP DCT BATAX DCT TOFEF DCT ALAGU |
| Aircraft | A20N/M-SDE2E3FGHIRWXY/LB1 |
Departure
| Time | 2026-05-08 07:05 |
|---|---|
| Airport | Lille Airport (LFQQ) |
Arrival
| Time | N/A |
|---|---|
| Airport | Faro - Gago Coutinho International Airport (LPFR) |
| Time | Latitude | Longitude | Altitude | Speed | Heading |
|---|---|---|---|---|---|
| 2026-05-08 06:52 | 50.57118 | 3.10691 | 155 ft | 0 kts | 15° |
| 2026-05-08 06:57 | 50.57107 | 3.10687 | 155 ft | 3 kts | 15° |
| 2026-05-08 06:57 | 50.57088 | 3.10679 | 154 ft | 3 kts | 15° |
| 2026-05-08 06:57 | 50.57069 | 3.10671 | 153 ft | 3 kts | 15° |
| 2026-05-08 06:57 | 50.57049 | 3.10663 | 153 ft | 3 kts | 15° |
| 2026-05-08 06:58 | 50.57033 | 3.10648 | 152 ft | 3 kts | 68° |
| 2026-05-08 06:58 | 50.57027 | 3.10619 | 152 ft | 3 kts | 77° |
| 2026-05-08 06:58 | 50.57027 | 3.10617 | 152 ft | 0 kts | 78° |
| 2026-05-08 06:59 | 50.57024 | 3.10650 | 152 ft | 6 kts | 107° |
| 2026-05-08 07:00 | 50.56979 | 3.10703 | 150 ft | 11 kts | 165° |
| 2026-05-08 07:00 | 50.56887 | 3.10734 | 149 ft | 15 kts | 172° |
| 2026-05-08 07:00 | 50.56816 | 3.10618 | 147 ft | 18 kts | 256° |
| 2026-05-08 07:00 | 50.56788 | 3.10424 | 150 ft | 19 kts | 258° |
| 2026-05-08 07:01 | 50.56761 | 3.10223 | 153 ft | 19 kts | 257° |
| 2026-05-08 07:01 | 50.56733 | 3.10030 | 159 ft | 18 kts | 257° |
| 2026-05-08 07:01 | 50.56704 | 3.09828 | 159 ft | 20 kts | 257° |
| 2026-05-08 07:01 | 50.56674 | 3.09612 | 162 ft | 21 kts | 258° |
| 2026-05-08 07:02 | 50.56641 | 3.09383 | 160 ft | 22 kts | 257° |
| 2026-05-08 07:02 | 50.56609 | 3.09165 | 159 ft | 22 kts | 257° |
| 2026-05-08 07:02 | 50.56580 | 3.08959 | 159 ft | 15 kts | 257° |
| 2026-05-08 07:02 | 50.56551 | 3.08790 | 159 ft | 17 kts | 239° |
| 2026-05-08 07:03 | 50.56444 | 3.08726 | 160 ft | 18 kts | 195° |
| 2026-05-08 07:03 | 50.56338 | 3.08645 | 163 ft | 18 kts | 240° |
| 2026-05-08 07:03 | 50.56314 | 3.08439 | 161 ft | 21 kts | 270° |
| 2026-05-08 07:03 | 50.56322 | 3.08326 | 160 ft | 5 kts | 237° |
| 2026-05-08 07:04 | 50.56294 | 3.08331 | 160 ft | 4 kts | 134° |
| 2026-05-08 07:04 | 50.56299 | 3.08371 | 161 ft | 6 kts | 75° |
| 2026-05-08 07:04 | 50.56346 | 3.08690 | 163 ft | 72 kts | 77° |
| 2026-05-08 07:04 | 50.56519 | 3.09900 | 168 ft | 150 kts | 77° |
| 2026-05-08 07:05 | 50.56744 | 3.11523 | 938 ft | 152 kts | 78° |
| 2026-05-08 07:05 | 50.56972 | 3.13188 | 1889 ft | 159 kts | 78° |
| 2026-05-08 07:05 | 50.57203 | 3.14911 | 2681 ft | 169 kts | 81° |
| 2026-05-08 07:05 | 50.57105 | 3.16793 | 3278 ft | 186 kts | 111° |
| 2026-05-08 07:06 | 50.56290 | 3.18509 | 3815 ft | 209 kts | 145° |
| 2026-05-08 07:06 | 50.54864 | 3.19272 | 4488 ft | 230 kts | 178° |
| 2026-05-08 07:06 | 50.53252 | 3.18691 | 5179 ft | 252 kts | 208° |
| 2026-05-08 07:06 | 50.51920 | 3.16792 | 5989 ft | 267 kts | 233° |
| 2026-05-08 07:07 | 50.50854 | 3.14385 | 7057 ft | 270 kts | 233° |
| 2026-05-08 07:07 | 50.49719 | 3.12014 | 8057 ft | 274 kts | 233° |
| 2026-05-08 07:07 | 50.48603 | 3.09555 | 9081 ft | 278 kts | 236° |
| 2026-05-08 07:07 | 50.47494 | 3.07038 | 10100 ft | 283 kts | 233° |
| 2026-05-08 07:08 | 50.46264 | 3.04535 | 10742 ft | 300 kts | 232° |
| 2026-05-08 07:08 | 50.44904 | 3.01892 | 11137 ft | 323 kts | 231° |
| 2026-05-08 07:08 | 50.43452 | 2.99099 | 11795 ft | 334 kts | 231° |
| 2026-05-08 07:08 | 50.41980 | 2.96265 | 12738 ft | 337 kts | 231° |
| 2026-05-08 07:09 | 50.40497 | 2.93395 | 13659 ft | 340 kts | 231° |
| 2026-05-08 07:09 | 50.39003 | 2.90493 | 14489 ft | 344 kts | 231° |
| 2026-05-08 07:09 | 50.37492 | 2.87557 | 15256 ft | 348 kts | 231° |
| 2026-05-08 07:09 | 50.35963 | 2.84586 | 16029 ft | 352 kts | 230° |
| 2026-05-08 07:10 | 50.34413 | 2.81582 | 16812 ft | 356 kts | 230° |
| 2026-05-08 07:10 | 50.32845 | 2.78545 | 17556 ft | 361 kts | 230° |
| 2026-05-08 07:10 | 50.31255 | 2.75471 | 18316 ft | 365 kts | 230° |
| 2026-05-08 07:10 | 50.29651 | 2.72373 | 18995 ft | 368 kts | 230° |
| 2026-05-08 07:11 | 50.28035 | 2.69258 | 19712 ft | 370 kts | 230° |
| 2026-05-08 07:11 | 50.26401 | 2.66111 | 20375 ft | 374 kts | 230° |
| 2026-05-08 07:11 | 50.24755 | 2.62939 | 21067 ft | 377 kts | 230° |
| 2026-05-08 07:11 | 50.23095 | 2.59746 | 21730 ft | 381 kts | 230° |
| 2026-05-08 07:12 | 50.21418 | 2.56524 | 22383 ft | 384 kts | 230° |
| 2026-05-08 07:12 | 50.19810 | 2.53170 | 23040 ft | 388 kts | 238° |
| 2026-05-08 07:12 | 50.18626 | 2.49379 | 23670 ft | 392 kts | 249° |
| 2026-05-08 07:12 | 50.17953 | 2.45238 | 24193 ft | 397 kts | 261° |
| 2026-05-08 07:13 | 50.17647 | 2.40941 | 24718 ft | 400 kts | 263° |
| 2026-05-08 07:13 | 50.17345 | 2.36610 | 25251 ft | 403 kts | 262° |
| 2026-05-08 07:13 | 50.17033 | 2.32252 | 25754 ft | 406 kts | 262° |
| 2026-05-08 07:13 | 50.16714 | 2.27862 | 26273 ft | 409 kts | 262° |
| 2026-05-08 07:14 | 50.16388 | 2.23432 | 26758 ft | 412 kts | 262° |
| 2026-05-08 07:14 | 50.16058 | 2.18982 | 27217 ft | 415 kts | 262° |
| 2026-05-08 07:14 | 50.15724 | 2.14499 | 27674 ft | 418 kts | 262° |
| 2026-05-08 07:14 | 50.15386 | 2.09986 | 28097 ft | 421 kts | 262° |
| 2026-05-08 07:15 | 50.15048 | 2.05498 | 28542 ft | 423 kts | 262° |
| 2026-05-08 07:15 | 50.14703 | 2.00932 | 28965 ft | 426 kts | 262° |
| 2026-05-08 07:15 | 50.14353 | 1.96332 | 29353 ft | 429 kts | 262° |
| 2026-05-08 07:15 | 50.13996 | 1.91704 | 29750 ft | 431 kts | 261° |
| 2026-05-08 07:16 | 50.13574 | 1.88009 | 30070 ft | 433 kts | 256° |
| 2026-05-08 07:16 | 50.12751 | 1.83494 | 30416 ft | 434 kts | 250° |
| 2026-05-08 07:16 | 50.11611 | 1.79134 | 30780 ft | 435 kts | 244° |
| 2026-05-08 07:16 | 50.10301 | 1.74877 | 31139 ft | 437 kts | 244° |
| 2026-05-08 07:17 | 50.08995 | 1.70597 | 31555 ft | 437 kts | 244° |
| 2026-05-08 07:17 | 50.07696 | 1.66327 | 32033 ft | 436 kts | 244° |
| 2026-05-08 07:17 | 50.06400 | 1.62072 | 32507 ft | 434 kts | 244° |
| 2026-05-08 07:17 | 50.05106 | 1.57832 | 32979 ft | 433 kts | 244° |
| 2026-05-08 07:18 | 50.03816 | 1.53615 | 33424 ft | 432 kts | 244° |
| 2026-05-08 07:18 | 50.02527 | 1.49408 | 33870 ft | 430 kts | 244° |
| 2026-05-08 07:18 | 50.01238 | 1.45214 | 34065 ft | 429 kts | 244° |
| 2026-05-08 07:18 | 49.99953 | 1.41039 | 34088 ft | 428 kts | 244° |
| 2026-05-08 07:19 | 49.97384 | 1.32709 | 34084 ft | 427 kts | 244° |
| 2026-05-08 07:19 | 49.94768 | 1.24432 | 34080 ft | 427 kts | 239° |
| 2026-05-08 07:20 | 49.90897 | 1.17473 | 34086 ft | 429 kts | 219° |
| 2026-05-08 07:20 | 49.85632 | 1.13094 | 34087 ft | 434 kts | 202° |
| 2026-05-08 07:21 | 49.79956 | 1.09873 | 34086 ft | 435 kts | 202° |
| 2026-05-08 07:21 | 49.74269 | 1.06625 | 34089 ft | 436 kts | 202° |
| 2026-05-08 07:22 | 49.68577 | 1.03382 | 34088 ft | 436 kts | 202° |
| 2026-05-08 07:22 | 49.62917 | 1.00167 | 34080 ft | 436 kts | 202° |
| 2026-05-08 07:23 | 49.57246 | 0.96945 | 34071 ft | 434 kts | 202° |
| 2026-05-08 07:23 | 49.51568 | 0.93721 | 34072 ft | 435 kts | 202° |
| 2026-05-08 07:24 | 49.45884 | 0.90504 | 34071 ft | 435 kts | 203° |
| 2026-05-08 07:24 | 49.40195 | 0.87293 | 34070 ft | 436 kts | 203° |
| 2026-05-08 07:25 | 49.34498 | 0.84084 | 34071 ft | 436 kts | 203° |
| 2026-05-08 07:26 | 49.25937 | 0.79278 | 34068 ft | 437 kts | 203° |
| 2026-05-08 07:26 | 49.20224 | 0.76079 | 34062 ft | 437 kts | 203° |
| 2026-05-08 07:27 | 49.14502 | 0.72882 | 34059 ft | 438 kts | 203° |
| 2026-05-08 07:27 | 49.08776 | 0.69691 | 34054 ft | 438 kts | 203° |
| 2026-05-08 07:28 | 49.03051 | 0.66485 | 34054 ft | 438 kts | 204° |
| 2026-05-08 07:28 | 48.97332 | 0.63262 | 34053 ft | 439 kts | 204° |
| 2026-05-08 07:29 | 48.91641 | 0.60068 | 34049 ft | 439 kts | 204° |
| 2026-05-08 07:29 | 48.85901 | 0.56857 | 34049 ft | 440 kts | 204° |
| 2026-05-08 07:30 | 48.80361 | 0.53085 | 34047 ft | 434 kts | 216° |
| 2026-05-08 07:30 | 48.75796 | 0.47282 | 34041 ft | 426 kts | 232° |
| 2026-05-08 07:31 | 48.71974 | 0.40427 | 34045 ft | 426 kts | 233° |
| 2026-05-08 07:31 | 48.68134 | 0.33591 | 34038 ft | 427 kts | 233° |
| 2026-05-08 07:32 | 48.64278 | 0.26764 | 34045 ft | 427 kts | 233° |
| 2026-05-08 07:32 | 48.61064 | 0.21087 | 34045 ft | 427 kts | 233° |
| 2026-05-08 07:33 | 48.57194 | 0.14261 | 34047 ft | 428 kts | 233° |
| 2026-05-08 07:33 | 48.53341 | 0.07412 | 34052 ft | 428 kts | 234° |
| 2026-05-08 07:34 | 48.49493 | 0.00573 | 34043 ft | 428 kts | 234° |
| 2026-05-08 07:34 | 48.45634 | -0.06258 | 34034 ft | 428 kts | 234° |
| 2026-05-08 07:35 | 48.41769 | -0.13079 | 34033 ft | 428 kts | 234° |
| 2026-05-08 07:35 | 48.37896 | -0.19897 | 34025 ft | 428 kts | 234° |
| 2026-05-08 07:36 | 48.34015 | -0.26705 | 34025 ft | 429 kts | 234° |
| 2026-05-08 07:36 | 48.30092 | -0.33476 | 34022 ft | 430 kts | 234° |
| 2026-05-08 07:37 | 48.26162 | -0.40232 | 34024 ft | 430 kts | 234° |
| 2026-05-08 07:37 | 48.22225 | -0.46992 | 34020 ft | 430 kts | 234° |
| 2026-05-08 07:38 | 48.18285 | -0.53746 | 34015 ft | 430 kts | 234° |
| 2026-05-08 07:38 | 48.14342 | -0.60486 | 34024 ft | 430 kts | 234° |
| 2026-05-08 07:39 | 48.10418 | -0.67177 | 34024 ft | 431 kts | 234° |
| 2026-05-08 07:39 | 48.06463 | -0.73905 | 34024 ft | 431 kts | 234° |
| 2026-05-08 07:40 | 48.02505 | -0.80621 | 34026 ft | 431 kts | 234° |
| 2026-05-08 07:40 | 47.98542 | -0.87326 | 34025 ft | 430 kts | 234° |
| 2026-05-08 07:41 | 47.94579 | -0.94016 | 34020 ft | 430 kts | 234° |
| 2026-05-08 07:41 | 47.90612 | -1.00695 | 34018 ft | 430 kts | 234° |
| 2026-05-08 07:42 | 47.86647 | -1.07356 | 34007 ft | 429 kts | 234° |
| 2026-05-08 07:42 | 47.82683 | -1.14000 | 34000 ft | 429 kts | 234° |
| 2026-05-08 07:43 | 47.78719 | -1.20627 | 33990 ft | 429 kts | 234° |
| 2026-05-08 07:43 | 47.74753 | -1.27241 | 33992 ft | 428 kts | 234° |
| 2026-05-08 07:44 | 47.70789 | -1.33834 | 33995 ft | 428 kts | 234° |
| 2026-05-08 07:44 | 47.66822 | -1.40418 | 33988 ft | 428 kts | 233° |
| 2026-05-08 07:45 | 47.62880 | -1.46942 | 33981 ft | 427 kts | 233° |
| 2026-05-08 07:45 | 47.58913 | -1.53496 | 33984 ft | 427 kts | 233° |
| 2026-05-08 07:46 | 47.54943 | -1.60044 | 33983 ft | 427 kts | 233° |
| 2026-05-08 07:46 | 47.50972 | -1.66579 | 33978 ft | 427 kts | 233° |
| 2026-05-08 07:47 | 47.47005 | -1.73093 | 33973 ft | 426 kts | 233° |
| 2026-05-08 07:47 | 47.43035 | -1.79596 | 33973 ft | 426 kts | 233° |
| 2026-05-08 07:48 | 47.39064 | -1.86083 | 33970 ft | 426 kts | 233° |
| 2026-05-08 07:48 | 47.34886 | -1.92293 | 33972 ft | 430 kts | 225° |
| 2026-05-08 07:49 | 47.29941 | -1.97365 | 33966 ft | 436 kts | 216° |
| 2026-05-08 07:49 | 47.24749 | -2.01973 | 33968 ft | 435 kts | 217° |
| 2026-05-08 07:50 | 47.19572 | -2.06590 | 33968 ft | 435 kts | 217° |
| 2026-05-08 07:50 | 47.14402 | -2.11196 | 33971 ft | 434 kts | 216° |
| 2026-05-08 07:51 | 47.09235 | -2.15787 | 33969 ft | 434 kts | 216° |
| 2026-05-08 07:51 | 47.04077 | -2.20360 | 33964 ft | 433 kts | 216° |
| 2026-05-08 07:52 | 46.98921 | -2.24920 | 33963 ft | 432 kts | 216° |
| 2026-05-08 07:52 | 46.93774 | -2.29463 | 33959 ft | 432 kts | 216° |
| 2026-05-08 07:53 | 46.88628 | -2.33995 | 33958 ft | 431 kts | 216° |
| 2026-05-08 07:53 | 46.83489 | -2.38510 | 33961 ft | 431 kts | 216° |
| 2026-05-08 07:54 | 46.78354 | -2.43019 | 33957 ft | 430 kts | 216° |
| 2026-05-08 07:54 | 46.73220 | -2.47516 | 33959 ft | 430 kts | 216° |
| 2026-05-08 07:55 | 46.68088 | -2.52001 | 33959 ft | 430 kts | 215° |
| 2026-05-08 07:55 | 46.62957 | -2.56474 | 33958 ft | 430 kts | 215° |
| 2026-05-08 07:56 | 46.57867 | -2.60903 | 33954 ft | 429 kts | 215° |
| 2026-05-08 07:56 | 46.52738 | -2.65355 | 33959 ft | 429 kts | 215° |
| 2026-05-08 07:57 | 46.47614 | -2.69793 | 33954 ft | 429 kts | 215° |
| 2026-05-08 07:57 | 46.42486 | -2.74225 | 33953 ft | 429 kts | 214° |
| 2026-05-08 07:58 | 46.37360 | -2.78645 | 33950 ft | 429 kts | 214° |
| 2026-05-08 07:58 | 46.32228 | -2.83060 | 33954 ft | 429 kts | 214° |
| 2026-05-08 07:59 | 46.27096 | -2.87467 | 33949 ft | 429 kts | 214° |
| 2026-05-08 07:59 | 46.21979 | -2.91898 | 33945 ft | 429 kts | 214° |
| 2026-05-08 08:00 | 46.16880 | -2.96352 | 33947 ft | 429 kts | 214° |
| 2026-05-08 08:00 | 46.11774 | -3.00797 | 33945 ft | 428 kts | 214° |
| 2026-05-08 08:01 | 46.06672 | -3.05222 | 33939 ft | 428 kts | 214° |
| 2026-05-08 08:01 | 46.01566 | -3.09638 | 33937 ft | 428 kts | 214° |
| 2026-05-08 08:02 | 45.96461 | -3.14044 | 33931 ft | 428 kts | 214° |
| 2026-05-08 08:02 | 45.91353 | -3.18442 | 33934 ft | 428 kts | 214° |
| 2026-05-08 08:03 | 45.86248 | -3.22828 | 33929 ft | 428 kts | 214° |
| 2026-05-08 08:03 | 45.81177 | -3.27176 | 33928 ft | 427 kts | 213° |
| 2026-05-08 08:04 | 45.76072 | -3.31545 | 33923 ft | 427 kts | 213° |
| 2026-05-08 08:04 | 45.70972 | -3.35899 | 33935 ft | 427 kts | 213° |
| 2026-05-08 08:05 | 45.65873 | -3.40243 | 33924 ft | 426 kts | 213° |
| 2026-05-08 08:05 | 45.60777 | -3.44575 | 33921 ft | 426 kts | 213° |
| 2026-05-08 08:06 | 45.55683 | -3.48896 | 33916 ft | 426 kts | 213° |
| 2026-05-08 08:06 | 45.50591 | -3.53207 | 33911 ft | 425 kts | 212° |
| 2026-05-08 08:07 | 45.45506 | -3.57503 | 33914 ft | 425 kts | 212° |
| 2026-05-08 08:07 | 45.40419 | -3.61790 | 33905 ft | 424 kts | 212° |
| 2026-05-08 08:08 | 45.35340 | -3.66062 | 33913 ft | 424 kts | 212° |
| 2026-05-08 08:08 | 45.30263 | -3.70324 | 33896 ft | 424 kts | 212° |
| 2026-05-08 08:09 | 45.25189 | -3.74575 | 33895 ft | 423 kts | 212° |
| 2026-05-08 08:09 | 45.20123 | -3.78809 | 33902 ft | 422 kts | 211° |
| 2026-05-08 08:10 | 45.15098 | -3.83000 | 33894 ft | 422 kts | 211° |
| 2026-05-08 08:10 | 45.10041 | -3.87209 | 33900 ft | 421 kts | 211° |
| 2026-05-08 08:11 | 45.04993 | -3.91402 | 33874 ft | 421 kts | 211° |
| 2026-05-08 08:11 | 44.99947 | -3.95584 | 33886 ft | 420 kts | 211° |
| 2026-05-08 08:12 | 44.94906 | -3.99755 | 33883 ft | 420 kts | 211° |
| 2026-05-08 08:12 | 44.89869 | -4.03913 | 33870 ft | 419 kts | 211° |
| 2026-05-08 08:13 | 44.84832 | -4.08062 | 33864 ft | 419 kts | 210° |
| 2026-05-08 08:13 | 44.79793 | -4.12205 | 33873 ft | 419 kts | 210° |
| 2026-05-08 08:14 | 44.74756 | -4.16338 | 33872 ft | 419 kts | 210° |
| 2026-05-08 08:14 | 44.69711 | -4.20468 | 33867 ft | 419 kts | 210° |
| 2026-05-08 08:15 | 44.64668 | -4.24590 | 33875 ft | 420 kts | 210° |
| 2026-05-08 08:15 | 44.59616 | -4.28709 | 33862 ft | 420 kts | 210° |
| 2026-05-08 08:16 | 44.54558 | -4.32825 | 33868 ft | 420 kts | 210° |
| 2026-05-08 08:16 | 44.49498 | -4.36934 | 33870 ft | 421 kts | 210° |
| 2026-05-08 08:17 | 44.44430 | -4.41044 | 33872 ft | 421 kts | 209° |
| 2026-05-08 08:17 | 44.39363 | -4.45168 | 33871 ft | 421 kts | 210° |
| 2026-05-08 08:18 | 44.34352 | -4.49424 | 33869 ft | 422 kts | 211° |
| 2026-05-08 08:18 | 44.29342 | -4.53693 | 33871 ft | 422 kts | 210° |
| 2026-05-08 08:19 | 44.24361 | -4.57911 | 33874 ft | 422 kts | 210° |
| 2026-05-08 08:19 | 44.19339 | -4.62145 | 33869 ft | 422 kts | 210° |
| 2026-05-08 08:20 | 44.14321 | -4.66365 | 33870 ft | 421 kts | 210° |
| 2026-05-08 08:20 | 44.09302 | -4.70578 | 33869 ft | 421 kts | 210° |
| 2026-05-08 08:21 | 44.04289 | -4.74778 | 33855 ft | 421 kts | 209° |
| 2026-05-08 08:21 | 43.99278 | -4.78967 | 33862 ft | 420 kts | 209° |
| 2026-05-08 08:22 | 43.94271 | -4.83145 | 33858 ft | 420 kts | 209° |
| 2026-05-08 08:22 | 43.89266 | -4.87313 | 33852 ft | 419 kts | 209° |
| 2026-05-08 08:23 | 43.85110 | -4.90767 | 33856 ft | 419 kts | 209° |
| 2026-05-08 08:23 | 43.80110 | -4.94916 | 33851 ft | 419 kts | 209° |
| 2026-05-08 08:24 | 43.75112 | -4.99054 | 33841 ft | 418 kts | 208° |
| 2026-05-08 08:24 | 43.70117 | -5.03183 | 33844 ft | 418 kts | 208° |
| 2026-05-08 08:25 | 43.65116 | -5.07307 | 33840 ft | 418 kts | 208° |
| 2026-05-08 08:25 | 43.60117 | -5.11422 | 33835 ft | 419 kts | 208° |
| 2026-05-08 08:26 | 43.55108 | -5.15536 | 33830 ft | 419 kts | 208° |
| 2026-05-08 08:26 | 43.50094 | -5.19647 | 33827 ft | 420 kts | 208° |
| 2026-05-08 08:27 | 43.45068 | -5.23760 | 33837 ft | 420 kts | 208° |
| 2026-05-08 08:27 | 43.40020 | -5.27882 | 33852 ft | 423 kts | 208° |
| 2026-05-08 08:28 | 43.34990 | -5.31982 | 33853 ft | 423 kts | 208° |
| 2026-05-08 08:28 | 43.29933 | -5.36098 | 33854 ft | 422 kts | 208° |
| 2026-05-08 08:29 | 43.24885 | -5.40197 | 33858 ft | 421 kts | 207° |
| 2026-05-08 08:29 | 43.19848 | -5.44279 | 33863 ft | 420 kts | 207° |
| 2026-05-08 08:30 | 43.14837 | -5.48333 | 33868 ft | 416 kts | 207° |
| 2026-05-08 08:30 | 43.07343 | -5.54379 | 33871 ft | 417 kts | 207° |
| 2026-05-08 08:31 | 43.02349 | -5.58400 | 33880 ft | 417 kts | 207° |
| 2026-05-08 08:31 | 42.97357 | -5.62410 | 33879 ft | 416 kts | 207° |
| 2026-05-08 08:32 | 42.92360 | -5.66418 | 33889 ft | 416 kts | 206° |
| 2026-05-08 08:32 | 42.87371 | -5.70411 | 33896 ft | 416 kts | 206° |
| 2026-05-08 08:33 | 42.82385 | -5.74395 | 33903 ft | 415 kts | 206° |
| 2026-05-08 08:33 | 42.77393 | -5.78374 | 33912 ft | 416 kts | 206° |
| 2026-05-08 08:34 | 42.72399 | -5.82350 | 33917 ft | 415 kts | 206° |
| 2026-05-08 08:34 | 42.67415 | -5.86309 | 33907 ft | 415 kts | 206° |
| 2026-05-08 08:35 | 42.62431 | -5.90261 | 33913 ft | 415 kts | 206° |
| 2026-05-08 08:35 | 42.57442 | -5.94209 | 33908 ft | 415 kts | 206° |
| 2026-05-08 08:36 | 42.52454 | -5.98150 | 33907 ft | 415 kts | 205° |
| 2026-05-08 08:36 | 42.47472 | -6.02078 | 33904 ft | 414 kts | 205° |
| 2026-05-08 08:37 | 42.42493 | -6.05996 | 33899 ft | 414 kts | 205° |
| 2026-05-08 08:37 | 42.37543 | -6.09884 | 33892 ft | 414 kts | 205° |
| 2026-05-08 08:38 | 42.32555 | -6.13795 | 33893 ft | 415 kts | 205° |
| 2026-05-08 08:38 | 42.27558 | -6.17705 | 33896 ft | 415 kts | 205° |
| 2026-05-08 08:39 | 42.22552 | -6.21615 | 33895 ft | 417 kts | 204° |
| 2026-05-08 08:39 | 42.17524 | -6.25535 | 33898 ft | 418 kts | 204° |
| 2026-05-08 08:40 | 42.12479 | -6.29462 | 33912 ft | 419 kts | 204° |
| 2026-05-08 08:40 | 42.07422 | -6.33392 | 33909 ft | 420 kts | 204° |
| 2026-05-08 08:41 | 42.02349 | -6.37325 | 33904 ft | 421 kts | 204° |
| 2026-05-08 08:41 | 41.97266 | -6.41260 | 33920 ft | 422 kts | 204° |
| 2026-05-08 08:42 | 41.92208 | -6.45168 | 33915 ft | 422 kts | 204° |
| 2026-05-08 08:42 | 41.87106 | -6.49102 | 33916 ft | 423 kts | 204° |
| 2026-05-08 08:43 | 41.81988 | -6.53041 | 33913 ft | 424 kts | 204° |
| 2026-05-08 08:43 | 41.76874 | -6.56972 | 33914 ft | 424 kts | 204° |
| 2026-05-08 08:44 | 41.71715 | -6.60804 | 33914 ft | 422 kts | 199° |
| 2026-05-08 08:44 | 41.66277 | -6.63573 | 33907 ft | 416 kts | 190° |
| 2026-05-08 08:45 | 41.60680 | -6.65518 | 33911 ft | 416 kts | 189° |
| 2026-05-08 08:45 | 41.55079 | -6.67491 | 33905 ft | 416 kts | 189° |
| 2026-05-08 08:46 | 41.49477 | -6.69467 | 33907 ft | 417 kts | 189° |
| 2026-05-08 08:46 | 41.43867 | -6.71440 | 33905 ft | 417 kts | 190° |
| 2026-05-08 08:47 | 41.38249 | -6.73412 | 33908 ft | 417 kts | 190° |
| 2026-05-08 08:47 | 41.32629 | -6.75380 | 33904 ft | 417 kts | 190° |
| 2026-05-08 08:48 | 41.27054 | -6.77330 | 33902 ft | 417 kts | 190° |
| 2026-05-08 08:48 | 41.21448 | -6.79289 | 33901 ft | 416 kts | 191° |
| 2026-05-08 08:49 | 41.15851 | -6.81241 | 33895 ft | 416 kts | 191° |
| 2026-05-08 08:49 | 41.10251 | -6.83190 | 33903 ft | 416 kts | 191° |
| 2026-05-08 08:50 | 41.04648 | -6.85137 | 33891 ft | 416 kts | 191° |
| 2026-05-08 08:50 | 40.99047 | -6.87081 | 33896 ft | 416 kts | 191° |
| 2026-05-08 08:51 | 40.93444 | -6.89022 | 33903 ft | 417 kts | 191° |
| 2026-05-08 08:51 | 40.87832 | -6.90961 | 33890 ft | 417 kts | 191° |
| 2026-05-08 08:52 | 40.82220 | -6.92899 | 33899 ft | 417 kts | 192° |
| 2026-05-08 08:52 | 40.76602 | -6.94834 | 33905 ft | 417 kts | 192° |
| 2026-05-08 08:53 | 40.70978 | -6.96769 | 33902 ft | 418 kts | 192° |
| 2026-05-08 08:53 | 40.65350 | -6.98701 | 33899 ft | 418 kts | 192° |
| 2026-05-08 08:54 | 40.59712 | -7.00633 | 33919 ft | 419 kts | 192° |
| 2026-05-08 08:54 | 40.54070 | -7.02563 | 33924 ft | 419 kts | 193° |
| 2026-05-08 08:55 | 40.48452 | -7.04482 | 33907 ft | 420 kts | 193° |
| 2026-05-08 08:55 | 40.42783 | -7.06415 | 33913 ft | 421 kts | 193° |
| 2026-05-08 08:56 | 40.37109 | -7.08344 | 33929 ft | 422 kts | 193° |
| 2026-05-08 08:56 | 40.31415 | -7.10277 | 33930 ft | 423 kts | 194° |
| 2026-05-08 08:57 | 40.25717 | -7.12208 | 33927 ft | 424 kts | 194° |
| 2026-05-08 08:57 | 40.20007 | -7.14140 | 33936 ft | 424 kts | 195° |
| 2026-05-08 08:58 | 40.14291 | -7.16072 | 33939 ft | 425 kts | 195° |
| 2026-05-08 08:58 | 40.08565 | -7.18004 | 33945 ft | 425 kts | 195° |
| 2026-05-08 08:59 | 40.02829 | -7.19936 | 33948 ft | 426 kts | 196° |
| 2026-05-08 08:59 | 39.97091 | -7.21865 | 33950 ft | 426 kts | 196° |
| 2026-05-08 09:00 | 39.91353 | -7.23791 | 33950 ft | 426 kts | 196° |
| 2026-05-08 09:00 | 39.85614 | -7.25715 | 33957 ft | 426 kts | 197° |
| 2026-05-08 09:01 | 39.79920 | -7.27619 | 33956 ft | 425 kts | 197° |
| 2026-05-08 09:01 | 39.74192 | -7.29532 | 33956 ft | 424 kts | 197° |
| 2026-05-08 09:02 | 39.68475 | -7.31438 | 33955 ft | 424 kts | 197° |
| 2026-05-08 09:02 | 39.62766 | -7.33338 | 33946 ft | 423 kts | 197° |
| 2026-05-08 09:03 | 39.57064 | -7.35234 | 33946 ft | 422 kts | 198° |
| 2026-05-08 09:03 | 39.51327 | -7.36916 | 33942 ft | 424 kts | 192° |
| 2026-05-08 09:04 | 39.45472 | -7.37926 | 33945 ft | 424 kts | 191° |
| 2026-05-08 09:04 | 39.39627 | -7.38946 | 33944 ft | 423 kts | 192° |
| 2026-05-08 09:05 | 39.33794 | -7.39969 | 33942 ft | 423 kts | 192° |
| 2026-05-08 09:05 | 39.27968 | -7.40988 | 33942 ft | 422 kts | 192° |
| 2026-05-08 09:06 | 39.22157 | -7.42002 | 33940 ft | 421 kts | 192° |
| 2026-05-08 09:06 | 39.16397 | -7.43005 | 33940 ft | 420 kts | 192° |
| 2026-05-08 09:07 | 39.10618 | -7.44010 | 33939 ft | 419 kts | 192° |
| 2026-05-08 09:07 | 39.04846 | -7.45013 | 33941 ft | 418 kts | 192° |
| 2026-05-08 09:08 | 38.99090 | -7.46010 | 33939 ft | 417 kts | 193° |
| 2026-05-08 09:08 | 38.93345 | -7.47004 | 33942 ft | 416 kts | 193° |
| 2026-05-08 09:09 | 38.87610 | -7.47995 | 33935 ft | 416 kts | 193° |
| 2026-05-08 09:09 | 38.81884 | -7.48983 | 33932 ft | 415 kts | 193° |
| 2026-05-08 09:10 | 38.76169 | -7.49967 | 33931 ft | 414 kts | 193° |
| 2026-05-08 09:10 | 38.70491 | -7.50944 | 33935 ft | 414 kts | 193° |
| 2026-05-08 09:11 | 38.64780 | -7.51924 | 33931 ft | 414 kts | 193° |
| 2026-05-08 09:11 | 38.59068 | -7.52904 | 33753 ft | 415 kts | 193° |
| 2026-05-08 09:12 | 38.56210 | -7.53392 | 33485 ft | 414 kts | 193° |
| 2026-05-08 09:12 | 38.53353 | -7.53880 | 33208 ft | 414 kts | 193° |
| 2026-05-08 09:12 | 38.50494 | -7.54368 | 32935 ft | 415 kts | 193° |
| 2026-05-08 09:12 | 38.47628 | -7.54858 | 32678 ft | 416 kts | 194° |
| 2026-05-08 09:13 | 38.44758 | -7.55348 | 32411 ft | 416 kts | 194° |
| 2026-05-08 09:13 | 38.41888 | -7.55837 | 32146 ft | 417 kts | 194° |
| 2026-05-08 09:13 | 38.39012 | -7.56326 | 31884 ft | 417 kts | 194° |
| 2026-05-08 09:13 | 38.36135 | -7.56816 | 31623 ft | 417 kts | 194° |
| 2026-05-08 09:14 | 38.33251 | -7.57306 | 31366 ft | 418 kts | 194° |
| 2026-05-08 09:14 | 38.30370 | -7.57796 | 31110 ft | 418 kts | 194° |
| 2026-05-08 09:14 | 38.27482 | -7.58285 | 30859 ft | 419 kts | 194° |
| 2026-05-08 09:14 | 38.24635 | -7.58768 | 30618 ft | 418 kts | 194° |